Time;durP1;ratioP1;P1;durP2;ratioP2;P2;SDS_P1;SDS_P2;PMS_P1;PMS_P2;Temp;Humidity;BMP_temperature;BMP_pressure;BME280_temperature;BME280_humidity;BME280_pressure;Samples;Min_cycle;Max_cycle;Signal;HPM_P1;HPM_P2
2023/03/10 00:00:38;;;;;;;16.67;8.20;;;0.00;99.90;;;;;;4789777;29;20200;-75
2023/03/10 00:03:05;;;;;;;16.20;7.93;;;0.00;99.90;;;;;;4789544;29;20642;-75
2023/03/10 00:05:32;;;;;;;18.77;8.13;;;0.00;99.90;;;;;;4789598;29;20216;-75
2023/03/10 00:07:59;;;;;;;15.70;7.63;;;0.10;99.90;;;;;;4789561;29;20270;-75
2023/03/10 00:10:26;;;;;;;15.07;7.53;;;0.10;99.90;;;;;;4789399;29;20206;-75
2023/03/10 00:12:53;;;;;;;19.43;7.97;;;0.10;99.90;;;;;;4789367;29;20283;-75
2023/03/10 00:15:20;;;;;;;19.57;8.53;;;0.20;99.90;;;;;;4789063;29;20206;-74
2023/03/10 00:17:49;;;;;;;19.63;8.10;;;0.10;99.90;;;;;;4805597;29;20214;-77
2023/03/10 00:20:15;;;;;;;16.10;8.20;;;0.10;99.90;;;;;;4805447;29;20206;-76
2023/03/10 00:22:42;;;;;;;14.03;8.00;;;0.20;99.90;;;;;;4789114;29;20211;-75
2023/03/10 00:25:09;;;;;;;16.57;8.10;;;0.10;99.90;;;;;;4789370;29;20514;-77
2023/03/10 00:27:36;;;;;;;16.27;8.07;;;0.10;99.90;;;;;;4805424;29;20548;-75
2023/03/10 00:30:04;;;;;;;15.67;7.80;;;0.00;99.90;;;;;;4789034;29;20211;-77
2023/03/10 00:32:32;;;;;;;15.60;7.87;;;0.10;99.90;;;;;;4789056;29;20253;-74
2023/03/10 00:34:59;;;;;;;17.03;7.27;;;0.20;99.90;;;;;;4788805;29;20229;-76
2023/03/10 00:37:26;;;;;;;15.53;8.13;;;0.20;99.90;;;;;;4789059;29;20216;-73
2023/03/10 00:39:56;;;;;;;17.30;8.10;;;0.20;99.90;;;;;;4805704;29;20202;-75
2023/03/10 00:42:23;;;;;;;17.10;7.97;;;0.20;99.90;;;;;;4805060;29;20283;-76
2023/03/10 00:44:50;;;;;;;17.03;8.50;;;0.10;99.90;;;;;;4789117;29;20199;-75
2023/03/10 00:47:16;;;;;;;18.07;8.17;;;0.20;99.90;;;;;;4788841;29;20203;-76
2023/03/10 00:49:43;;;;;;;16.70;7.73;;;0.20;99.90;;;;;;4789056;29;20207;-75
2023/03/10 00:52:10;;;;;;;17.33;7.87;;;0.20;99.90;;;;;;4788826;29;20216;-75
2023/03/10 00:54:40;;;;;;;15.40;8.57;;;0.10;99.90;;;;;;4788762;29;20221;-76
2023/03/10 00:57:08;;;;;;;18.97;8.57;;;0.10;99.90;;;;;;4788580;29;20585;-76
2023/03/10 00:59:34;;;;;;;16.00;7.87;;;0.20;99.90;;;;;;4788855;29;20207;-74
2023/03/10 01:02:17;;;;;;;18.03;8.67;;;0.20;99.90;;;;;;4805187;29;20730;-75
2023/03/10 01:04:43;;;;;;;19.73;8.53;;;0.20;99.90;;;;;;4804731;29;20572;-75
2023/03/10 01:07:10;;;;;;;17.60;8.37;;;0.10;99.90;;;;;;4788549;29;20207;-75
2023/03/10 01:09:37;;;;;;;18.77;8.83;;;0.10;99.90;;;;;;4788630;29;20210;-75
2023/03/10 01:12:05;;;;;;;16.13;8.70;;;0.10;99.90;;;;;;4788613;29;20204;-74
2023/03/10 01:14:31;;;;;;;16.90;8.80;;;0.10;99.90;;;;;;4788802;29;20215;-74
2023/03/10 01:16:58;;;;;;;21.00;9.43;;;0.10;99.90;;;;;;4788771;29;20202;-74
2023/03/10 01:19:25;;;;;;;20.00;9.30;;;0.00;99.90;;;;;;4788356;29;20218;-75
2023/03/10 01:21:52;;;;;;;16.83;9.40;;;0.00;99.90;;;;;;4788555;29;20656;-75
2023/03/10 01:24:19;;;;;;;18.17;9.93;;;0.00;99.90;;;;;;4773613;29;20218;-75
2023/03/10 01:26:46;;;;;;;21.67;9.70;;;-0.10;99.90;;;;;;4804770;29;20207;-75
2023/03/10 01:29:12;;;;;;;19.83;9.67;;;0.00;99.90;;;;;;4788569;29;20219;-75
2023/03/10 01:31:40;;;;;;;20.30;10.67;;;0.00;99.90;;;;;;4788572;29;20203;-74
2023/03/10 01:34:08;;;;;;;18.40;10.00;;;0.00;99.90;;;;;;4785121;30;20291;-77
2023/03/10 01:36:35;;;;;;;21.23;10.60;;;0.00;99.90;;;;;;4785302;30;20211;-75
2023/03/10 01:39:02;;;;;;;19.23;10.87;;;0.00;99.90;;;;;;4786434;30;20556;-75
2023/03/10 01:41:29;;;;;;;21.57;10.73;;;0.00;99.90;;;;;;4786588;30;20205;-74
2023/03/10 01:43:56;;;;;;;20.03;9.50;;;0.00;99.90;;;;;;4786440;30;20215;-75
2023/03/10 01:46:25;;;;;;;18.07;9.63;;;0.00;99.90;;;;;;4770235;30;20299;-75
2023/03/10 01:49:01;;;;;;;20.57;10.60;;;0.10;99.90;;;;;;4786497;30;20334;-75
2023/03/10 01:51:30;;;;;;;20.77;11.50;;;0.10;99.90;;;;;;4784444;30;20240;-75
2023/03/10 01:53:58;;;;;;;21.67;10.70;;;0.00;99.90;;;;;;4786481;30;20334;-75
2023/03/10 01:56:25;;;;;;;20.10;11.03;;;0.00;99.90;;;;;;4770392;30;20570;-75
2023/03/10 01:58:52;;;;;;;21.20;10.63;;;0.00;99.90;;;;;;4786497;30;20214;-75
2023/03/10 02:01:20;;;;;;;21.43;10.50;;;0.10;99.90;;;;;;4770176;30;20298;-75
2023/03/10 02:03:55;;;;;;;22.37;10.53;;;0.10;99.90;;;;;;4786502;30;20208;-75
2023/03/10 02:06:24;;;;;;;20.33;10.53;;;0.10;99.90;;;;;;4769975;30;20215;-76
2023/03/10 02:08:55;;;;;;;21.67;11.03;;;0.20;99.90;;;;;;4770263;30;20648;-75
2023/03/10 02:11:22;;;;;;;20.60;10.73;;;0.10;99.90;;;;;;4770198;30;20215;-75
2023/03/10 02:13:49;;;;;;;25.47;11.63;;;0.00;99.90;;;;;;4770270;30;20620;-74
2023/03/10 02:16:17;;;;;;;24.93;11.03;;;0.00;99.90;;;;;;4771513;30;20218;-75
2023/03/10 02:18:46;;;;;;;21.60;11.10;;;0.00;99.90;;;;;;4773385;30;20292;-76
2023/03/10 02:21:22;;;;;;;23.23;11.17;;;0.00;99.90;;;;;;4773160;30;20716;-75
2023/03/10 02:24:35;;;;;;;21.50;10.80;;;0.10;99.90;;;;;;4773121;30;20207;-76
2023/03/10 02:27:21;;;;;;;22.40;11.47;;;0.00;99.90;;;;;;4769656;30;20216;-76
2023/03/10 02:30:00;;;;;;;25.80;11.93;;;0.10;99.90;;;;;;4772838;30;20223;-76
2023/03/10 02:32:30;;;;;;;23.40;11.43;;;0.10;99.90;;;;;;4773023;30;20207;-75
2023/03/10 02:34:57;;;;;;;22.33;11.13;;;0.10;99.90;;;;;;4789063;30;20208;-75
2023/03/10 02:37:28;;;;;;;25.70;11.90;;;0.10;99.90;;;;;;4773096;30;20212;-75
2023/03/10 02:39:56;;;;;;;24.43;11.80;;;0.00;99.90;;;;;;4789393;30;20203;-74
2023/03/10 02:42:33;;;;;;;27.10;12.10;;;0.00;99.90;;;;;;4773168;30;20200;-75
2023/03/10 02:45:03;;;;;;;23.93;12.07;;;0.10;99.90;;;;;;4772697;30;20211;-75
2023/03/10 02:47:29;;;;;;;22.93;11.70;;;0.00;99.90;;;;;;4788946;30;20196;-75
2023/03/10 02:49:56;;;;;;;26.73;12.53;;;0.10;99.90;;;;;;4772946;30;20227;-74
2023/03/10 02:52:30;;;;;;;20.47;11.03;;;0.10;99.90;;;;;;4772607;30;20209;-75
2023/03/10 02:54:57;;;;;;;25.57;12.17;;;0.10;99.90;;;;;;4772783;30;20196;-77
2023/03/10 02:57:24;;;;;;;23.73;11.27;;;0.20;99.90;;;;;;4772823;30;20215;-75
2023/03/10 02:59:50;;;;;;;24.50;10.80;;;0.20;99.90;;;;;;4772587;30;20658;-76
2023/03/10 03:02:17;;;;;;;22.93;11.97;;;0.20;99.90;;;;;;4772554;30;20209;-76
2023/03/10 03:04:44;;;;;;;23.20;11.50;;;0.20;99.90;;;;;;4772402;30;20196;-77
2023/03/10 03:07:11;;;;;;;23.47;11.40;;;0.20;99.90;;;;;;4772359;30;20215;-76
2023/03/10 03:09:38;;;;;;;25.40;11.60;;;0.20;99.90;;;;;;4788595;30;20237;-76
2023/03/10 03:12:05;;;;;;;23.67;12.00;;;0.10;99.90;;;;;;4772427;30;20324;-76
2023/03/10 03:14:32;;;;;;;24.00;11.80;;;0.00;99.90;;;;;;4772402;30;20236;-77
2023/03/10 03:16:59;;;;;;;22.87;11.70;;;0.10;99.90;;;;;;4772252;30;20202;-77
2023/03/10 03:19:26;;;;;;;23.00;12.10;;;0.20;99.90;;;;;;4788465;30;20232;-76
2023/03/10 03:21:55;;;;;;;25.57;12.07;;;0.10;99.90;;;;;;4788398;30;20204;-75
2023/03/10 03:24:22;;;;;;;25.23;12.37;;;0.10;99.90;;;;;;4772231;30;20220;-76
2023/03/10 03:26:49;;;;;;;25.80;12.47;;;0.10;99.90;;;;;;4771601;30;20218;-77
2023/03/10 03:29:16;;;;;;;24.37;11.87;;;0.10;99.90;;;;;;4787905;30;20310;-75
2023/03/10 03:31:43;;;;;;;24.77;12.40;;;0.20;99.90;;;;;;4771786;30;20671;-76
2023/03/10 03:34:10;;;;;;;26.30;12.33;;;0.10;99.90;;;;;;4771776;30;20643;-76
2023/03/10 03:36:37;;;;;;;26.20;12.40;;;0.10;99.90;;;;;;4771889;30;20201;-76
2023/03/10 03:39:06;;;;;;;27.10;12.50;;;0.20;99.90;;;;;;4772214;30;20208;-76
2023/03/10 03:41:33;;;;;;;27.10;12.37;;;0.20;99.90;;;;;;4771954;30;20204;-76
2023/03/10 03:44:00;;;;;;;29.50;12.97;;;0.20;99.90;;;;;;4773525;30;20244;-76
2023/03/10 03:46:27;;;;;;;28.50;13.60;;;0.20;99.90;;;;;;4772632;30;20200;-76
2023/03/10 03:48:54;;;;;;;26.30;12.30;;;0.10;99.90;;;;;;4772019;30;20212;-76
2023/03/10 03:51:20;;;;;;;27.27;12.90;;;0.10;99.90;;;;;;4771684;30;20211;-77
2023/03/10 03:53:47;;;;;;;27.23;13.40;;;0.10;99.90;;;;;;4771809;30;20227;-76
2023/03/10 03:56:14;;;;;;;28.20;13.27;;;0.20;99.90;;;;;;4787896;30;20224;-77
2023/03/10 03:58:41;;;;;;;26.53;13.07;;;0.20;99.90;;;;;;4771652;30;20211;-76
2023/03/10 04:01:08;;;;;;;25.50;12.87;;;0.10;99.90;;;;;;4771787;30;20214;-77
2023/03/10 04:03:35;;;;;;;27.37;14.10;;;0.20;99.90;;;;;;4787584;30;20208;-76
2023/03/10 04:06:02;;;;;;;29.13;14.47;;;0.20;99.90;;;;;;4771485;30;20226;-78
2023/03/10 04:08:29;;;;;;;29.33;14.83;;;0.30;99.90;;;;;;4771716;30;20208;-77
2023/03/10 04:10:56;;;;;;;30.73;15.40;;;0.30;99.90;;;;;;4787682;30;20196;-76
2023/03/10 04:16:38;;;;;;;32.33;15.23;;;0.20;99.90;;;;;;4889884;24;20253;-76
2023/03/10 04:19:06;;;;;;;30.80;14.73;;;0.30;99.90;;;;;;4769689;30;20203;-76
2023/03/10 04:21:34;;;;;;;33.10;15.70;;;0.30;99.90;;;;;;4768299;30;20206;-75
2023/03/10 04:24:01;;;;;;;28.83;14.57;;;0.30;99.90;;;;;;4768240;30;20625;-76
2023/03/10 04:26:28;;;;;;;29.27;14.70;;;0.30;99.90;;;;;;4753672;30;20196;-76
2023/03/10 04:28:56;;;;;;;31.77;14.80;;;0.30;99.90;;;;;;4767959;30;20332;-76
2023/03/10 04:31:24;;;;;;;30.30;14.90;;;0.30;99.90;;;;;;4753546;30;20219;-77
2023/03/10 04:33:52;;;;;;;31.20;14.50;;;0.20;99.90;;;;;;4768178;30;20585;-75
2023/03/10 04:36:19;;;;;;;32.73;16.10;;;0.30;99.90;;;;;;4753005;30;20215;-78
2023/03/10 04:38:47;;;;;;;32.70;14.83;;;0.30;99.90;;;;;;4753094;30;20223;-76
2023/03/10 04:41:14;;;;;;;30.77;15.00;;;0.40;99.90;;;;;;4753299;30;20219;-77
2023/03/10 04:43:41;;;;;;;29.37;14.53;;;0.40;99.90;;;;;;4753408;30;20521;-76
2023/03/10 04:46:11;;;;;;;31.27;14.77;;;0.40;99.90;;;;;;4769045;30;20225;-76
2023/03/10 04:48:38;;;;;;;31.60;15.37;;;0.40;99.90;;;;;;4753547;30;20213;-74
2023/03/10 04:51:08;;;;;;;33.13;15.90;;;0.40;99.90;;;;;;4769302;30;20368;-75
2023/03/10 04:53:36;;;;;;;33.23;16.97;;;0.50;99.90;;;;;;4769362;30;20232;-75
2023/03/10 04:56:06;;;;;;;31.33;16.23;;;0.50;99.90;;;;;;4753391;30;20212;-75
2023/03/10 04:58:33;;;;;;;30.70;15.90;;;0.40;99.90;;;;;;4768066;30;20540;-76
2023/03/10 05:01:00;;;;;;;33.87;17.83;;;0.50;99.90;;;;;;4753112;30;20645;-75
2023/03/10 05:03:29;;;;;;;33.20;16.57;;;0.50;99.90;;;;;;4767800;30;20205;-74
2023/03/10 05:05:56;;;;;;;34.67;17.23;;;0.50;99.90;;;;;;4752757;30;20248;-75
2023/03/10 05:08:23;;;;;;;34.67;17.57;;;0.50;99.90;;;;;;4752926;30;20681;-74
2023/03/10 05:10:50;;;;;;;36.57;17.53;;;0.40;99.90;;;;;;4769037;30;20544;-76
2023/03/10 05:13:16;;;;;;;35.63;17.70;;;0.40;99.90;;;;;;4752887;30;20229;-74
2023/03/10 05:15:43;;;;;;;35.17;17.20;;;0.40;99.90;;;;;;4752830;30;20946;-75
2023/03/10 05:18:11;;;;;;;33.80;16.57;;;0.50;99.90;;;;;;4752925;30;20197;-75
2023/03/10 05:20:38;;;;;;;33.33;17.43;;;0.50;99.90;;;;;;4753068;30;20227;-76
2023/03/10 05:23:05;;;;;;;35.20;17.37;;;0.50;99.90;;;;;;4767825;30;20552;-73
2023/03/10 05:25:32;;;;;;;35.27;17.93;;;0.50;99.90;;;;;;4767769;30;20218;-74
2023/03/10 05:27:59;;;;;;;34.53;17.37;;;0.60;99.90;;;;;;4767465;30;20228;-75
2023/03/10 05:30:26;;;;;;;33.37;16.80;;;0.60;99.90;;;;;;4768902;30;20216;-74
2023/03/10 05:32:53;;;;;;;35.33;17.87;;;0.60;99.90;;;;;;4769205;30;20208;-75
2023/03/10 05:35:20;;;;;;;37.07;17.73;;;0.60;99.90;;;;;;4768566;30;20641;-73
2023/03/10 05:37:47;;;;;;;37.73;17.60;;;0.60;99.90;;;;;;4767722;30;20235;-74
2023/03/10 05:40:18;;;;;;;40.37;18.70;;;0.70;99.90;;;;;;4752716;30;20262;-74
2023/03/10 05:42:46;;;;;;;36.40;17.13;;;0.70;99.90;;;;;;4752812;30;20265;-74
2023/03/10 05:45:14;;;;;;;36.83;17.70;;;0.70;99.90;;;;;;4767643;30;20223;-74
2023/03/10 05:47:41;;;;;;;35.40;17.50;;;0.70;99.90;;;;;;4752896;30;20217;-73
2023/03/10 05:50:09;;;;;;;39.83;18.77;;;0.80;99.90;;;;;;4737872;30;20263;-74
2023/03/10 05:52:42;;;;;;;38.53;17.77;;;0.80;99.90;;;;;;4741517;30;20209;-73
2023/03/10 05:55:15;;;;;;;37.60;16.93;;;0.80;99.90;;;;;;4755630;30;20238;-74
2023/03/10 05:57:42;;;;;;;41.03;18.27;;;0.90;99.90;;;;;;4755678;30;20303;-77
2023/03/10 06:00:11;;;;;;;37.90;18.00;;;0.90;99.90;;;;;;4756065;30;20223;-74
2023/03/10 06:02:39;;;;;;;39.80;17.60;;;0.90;99.90;;;;;;4755747;30;20216;-75
2023/03/10 06:05:08;;;;;;;40.50;18.27;;;1.00;99.90;;;;;;4771647;30;20220;-73
2023/03/10 06:07:37;;;;;;;42.07;18.47;;;1.00;99.90;;;;;;4755933;30;20303;-74
2023/03/10 06:10:04;;;;;;;40.80;18.50;;;1.00;99.90;;;;;;4756050;30;20565;-72
2023/03/10 06:12:32;;;;;;;43.80;18.43;;;1.00;99.90;;;;;;4773023;30;20250;-75
2023/03/10 06:14:59;;;;;;;43.93;20.07;;;1.10;99.90;;;;;;4770024;30;20282;-73
2023/03/10 06:17:26;;;;;;;43.73;19.37;;;1.10;99.90;;;;;;4771570;30;20309;-72
2023/03/10 06:19:52;;;;;;;45.60;20.67;;;1.10;99.90;;;;;;4755735;30;20284;-74
2023/03/10 06:22:19;;;;;;;46.23;19.87;;;1.20;99.90;;;;;;4755366;30;20208;-76
2023/03/10 06:24:46;;;;;;;44.03;20.43;;;1.20;99.90;;;;;;4771331;30;20205;-74
2023/03/10 06:27:13;;;;;;;41.70;19.63;;;1.20;99.90;;;;;;4755462;30;20559;-73
2023/03/10 06:29:40;;;;;;;45.53;20.17;;;1.30;99.90;;;;;;4770311;30;20201;-73
2023/03/10 06:32:07;;;;;;;46.57;20.97;;;1.30;99.90;;;;;;4770410;30;20197;-72
2023/03/10 06:34:34;;;;;;;44.93;19.83;;;1.30;99.90;;;;;;4770094;30;20229;-73
2023/03/10 06:37:00;;;;;;;45.57;20.77;;;1.40;99.90;;;;;;4771503;30;20197;-73
2023/03/10 06:39:27;;;;;;;44.77;20.23;;;1.30;99.90;;;;;;4770557;30;20212;-75
2023/03/10 06:41:54;;;;;;;51.03;21.13;;;1.40;99.90;;;;;;4755547;30;20616;-72
2023/03/10 06:44:21;;;;;;;45.73;20.60;;;1.40;99.90;;;;;;4770016;30;20220;-73
2023/03/10 06:46:48;;;;;;;48.00;21.50;;;1.50;99.90;;;;;;4769881;30;20628;-73
2023/03/10 06:49:15;;;;;;;49.50;21.70;;;1.50;99.90;;;;;;4755232;30;20209;-72
2023/03/10 06:51:42;;;;;;;49.10;22.47;;;1.60;99.90;;;;;;4769762;30;20219;-72
2023/03/10 06:54:08;;;;;;;48.50;20.83;;;1.60;99.90;;;;;;4755105;30;20243;-73
2023/03/10 06:56:35;;;;;;;44.50;20.53;;;1.70;99.90;;;;;;4770956;30;20657;-73
2023/03/10 06:59:02;;;;;;;49.87;21.70;;;1.70;99.90;;;;;;4771381;30;20220;-72
2023/03/10 07:01:31;;;;;;;45.33;20.00;;;1.70;99.90;;;;;;4769624;30;20209;-72
2023/03/10 07:04:00;;;;;;;45.27;19.77;;;1.80;99.90;;;;;;4770824;30;20205;-75
2023/03/10 07:06:28;;;;;;;48.23;22.10;;;1.80;99.90;;;;;;4769509;30;20201;-71
2023/03/10 07:08:55;;;;;;;47.20;21.33;;;1.90;99.90;;;;;;4754965;30;20209;-73
2023/03/10 07:11:24;;;;;;;45.13;20.83;;;1.90;99.90;;;;;;4755173;30;20215;-73
2023/03/10 07:13:51;;;;;;;43.73;20.30;;;2.10;99.90;;;;;;4754552;30;20235;-73
2023/03/10 07:16:19;;;;;;;44.87;21.23;;;2.10;99.90;;;;;;4754537;30;20335;-73
2023/03/10 07:18:46;;;;;;;42.53;20.47;;;2.20;99.90;;;;;;4770958;30;20219;-74
2023/03/10 07:21:19;;;;;;;42.83;20.17;;;2.20;99.90;;;;;;4754539;30;20368;-78
2023/03/10 07:23:46;;;;;;;41.90;19.93;;;2.30;99.90;;;;;;4770649;30;20189;-76
2023/03/10 07:26:14;;;;;;;43.87;20.67;;;2.30;99.90;;;;;;4739464;30;20216;-73
2023/03/10 07:28:41;;;;;;;48.83;21.90;;;2.40;99.90;;;;;;4754417;30;20755;-77
2023/03/10 07:31:10;;;;;;;45.80;21.43;;;2.50;99.90;;;;;;4754406;30;20224;-78
2023/03/10 07:33:37;;;;;;;43.80;20.80;;;2.50;99.90;;;;;;4754160;30;20300;-74
2023/03/10 07:36:06;;;;;;;51.13;22.57;;;2.50;99.90;;;;;;4754472;30;20217;-75
2023/03/10 07:38:34;;;;;;;44.13;21.27;;;2.50;99.90;;;;;;4754381;30;20786;-75
2023/03/10 07:41:08;;;;;;;45.47;22.17;;;2.50;99.90;;;;;;4770650;30;20346;-73
2023/03/10 07:43:35;;;;;;;47.23;21.43;;;2.40;99.90;;;;;;4768989;30;20211;-74
2023/03/10 07:46:07;;;;;;;47.03;21.47;;;2.40;99.90;;;;;;4754059;30;20672;-75
2023/03/10 07:48:34;;;;;;;51.03;23.17;;;2.40;99.90;;;;;;4754094;30;20205;-74
2023/03/10 07:51:01;;;;;;;52.40;23.20;;;2.50;99.90;;;;;;4770008;30;20201;-75
2023/03/10 07:53:29;;;;;;;50.53;23.07;;;2.50;99.90;;;;;;4754085;30;20227;-73
2023/03/10 07:55:55;;;;;;;50.17;22.70;;;2.70;99.90;;;;;;4769876;30;20316;-73
2023/03/10 07:58:23;;;;;;;53.67;23.53;;;2.70;99.90;;;;;;4768820;30;20209;-73
2023/03/10 08:00:55;;;;;;;50.07;23.57;;;2.70;99.90;;;;;;4768605;30;20545;-74
2023/03/10 08:03:22;;;;;;;51.10;23.70;;;2.80;99.90;;;;;;4754109;30;20577;-73
2023/03/10 08:05:50;;;;;;;53.80;23.57;;;2.90;99.90;;;;;;4769938;30;20579;-75
2023/03/10 08:08:18;;;;;;;54.70;23.90;;;3.00;99.90;;;;;;4768636;30;20212;-75
2023/03/10 08:10:45;;;;;;;49.40;22.63;;;3.00;99.90;;;;;;4768675;30;20198;-73
2023/03/10 08:13:12;;;;;;;50.50;24.20;;;3.10;99.90;;;;;;4752802;30;20219;-75
2023/03/10 08:15:40;;;;;;;51.90;23.70;;;3.10;99.90;;;;;;4753373;30;20335;-75
2023/03/10 08:18:07;;;;;;;55.17;23.90;;;3.10;99.90;;;;;;4753508;30;20244;-75
2023/03/10 08:20:35;;;;;;;53.93;22.87;;;3.10;99.90;;;;;;4768038;30;20220;-74
2023/03/10 08:23:03;;;;;;;53.90;24.00;;;3.20;99.90;;;;;;4769670;30;20205;-74
2023/03/10 08:25:29;;;;;;;54.33;24.17;;;3.20;99.90;;;;;;4753518;30;20250;-74
2023/03/10 08:27:57;;;;;;;54.67;23.27;;;3.00;99.90;;;;;;4753543;30;20234;-74
2023/03/10 08:30:23;;;;;;;54.77;23.87;;;3.10;99.90;;;;;;4752979;30;20201;-75
2023/03/10 08:32:50;;;;;;;51.33;23.63;;;3.00;99.90;;;;;;4753296;30;20217;-74
2023/03/10 08:35:18;;;;;;;57.93;24.83;;;3.00;99.90;;;;;;4752850;30;20229;-74
2023/03/10 08:37:45;;;;;;;58.83;25.23;;;3.10;99.90;;;;;;4753087;30;20210;-73
2023/03/10 08:40:13;;;;;;;58.00;25.10;;;3.10;99.90;;;;;;4753112;30;20214;-74
2023/03/10 08:42:40;;;;;;;54.73;23.27;;;3.10;99.90;;;;;;4752923;30;20679;-72
2023/03/10 08:45:08;;;;;;;53.40;24.10;;;3.00;99.90;;;;;;4768070;30;20903;-73
2023/03/10 08:47:35;;;;;;;57.23;23.57;;;3.00;99.90;;;;;;4753147;30;20197;-72
2023/03/10 08:50:03;;;;;;;58.87;24.70;;;3.00;99.90;;;;;;4753081;30;20550;-71
2023/03/10 08:52:30;;;;;;;59.60;23.93;;;3.00;99.90;;;;;;4753351;30;20206;-72
2023/03/10 08:54:57;;;;;;;58.33;25.17;;;3.00;99.90;;;;;;4769338;30;20237;-72
2023/03/10 08:57:25;;;;;;;61.70;24.80;;;3.20;99.90;;;;;;4769363;30;20731;-73
2023/03/10 08:59:53;;;;;;;55.67;23.27;;;3.30;99.90;;;;;;4753353;30;20297;-73
2023/03/10 09:02:20;;;;;;;58.37;23.73;;;3.40;99.90;;;;;;4767642;30;20246;-73
2023/03/10 09:04:49;;;;;;;58.37;24.43;;;3.40;99.90;;;;;;4768887;30;20254;-72
2023/03/10 09:07:16;;;;;;;53.80;23.83;;;3.40;99.90;;;;;;4769204;30;20550;-73
2023/03/10 09:09:43;;;;;;;57.00;24.13;;;3.50;99.90;;;;;;4753103;30;20206;-72
2023/03/10 09:12:11;;;;;;;58.00;24.80;;;3.60;99.90;;;;;;4752857;30;20196;-72
2023/03/10 09:14:38;;;;;;;56.07;24.20;;;3.70;99.90;;;;;;4752777;30;20646;-73
2023/03/10 09:17:05;;;;;;;52.63;23.57;;;3.80;99.90;;;;;;4769477;30;20209;-72
2023/03/10 09:19:32;;;;;;;54.07;23.50;;;3.90;99.90;;;;;;4767918;30;20215;-73
2023/03/10 09:21:59;;;;;;;53.23;23.17;;;4.00;99.90;;;;;;4753135;30;20241;-74
2023/03/10 09:24:26;;;;;;;51.50;22.20;;;4.00;99.90;;;;;;4769575;30;20347;-73
2023/03/10 09:26:54;;;;;;;53.67;23.03;;;4.10;99.90;;;;;;4756757;30;20212;-74
2023/03/10 09:29:21;;;;;;;51.97;22.40;;;4.20;99.90;;;;;;4771267;30;20240;-71
2023/03/10 09:32:07;;;;;;;46.97;20.73;;;4.20;99.90;;;;;;4756619;30;20659;-73
2023/03/10 09:34:34;;;;;;;45.47;20.47;;;4.20;99.90;;;;;;4756589;30;20250;-75
2023/03/10 09:37:01;;;;;;;43.27;20.63;;;4.20;99.90;;;;;;4756367;30;20202;-72
2023/03/10 09:39:28;;;;;;;47.27;21.60;;;4.30;99.90;;;;;;4756502;30;20196;-73
2023/03/10 09:42:07;;;;;;;48.80;21.73;;;4.30;99.90;;;;;;4772642;30;20210;-73
2023/03/10 09:44:53;;;;;;;47.57;21.33;;;4.40;99.90;;;;;;4772489;30;20219;-72
2023/03/10 09:47:23;;;;;;;48.23;21.47;;;4.40;99.90;;;;;;4771060;30;20570;-72
2023/03/10 09:50:08;;;;;;;43.57;20.47;;;4.40;99.90;;;;;;4756372;30;20214;-72
2023/03/10 09:52:38;;;;;;;49.13;21.10;;;4.30;99.90;;;;;;4772180;30;20224;-71
2023/03/10 09:55:32;;;;;;;47.63;21.20;;;4.30;99.90;;;;;;4755793;30;20226;-71
2023/03/10 09:57:59;;;;;;;47.70;20.90;;;4.40;99.90;;;;;;4741391;30;20220;-72
2023/03/10 10:00:36;;;;;;;50.27;22.03;;;4.40;99.90;;;;;;4756159;30;20219;-73
2023/03/10 10:03:32;;;;;;;44.30;21.10;;;4.60;99.90;;;;;;4755919;30;20208;-72
2023/03/10 10:06:23;;;;;;;45.63;19.43;;;4.70;99.90;;;;;;4755795;30;20304;-73
2023/03/10 10:08:59;;;;;;;41.60;19.80;;;4.80;99.90;;;;;;4756096;30;20312;-72
2023/03/10 10:11:36;;;;;;;42.70;19.27;;;4.90;99.90;;;;;;4770693;30;20301;-72
2023/03/10 10:14:24;;;;;;;43.70;19.83;;;4.90;99.90;;;;;;4770432;30;20217;-72
2023/03/10 10:17:16;;;;;;;42.80;20.20;;;4.90;99.90;;;;;;4755704;30;20214;-72
2023/03/10 10:19:46;;;;;;;39.90;19.60;;;5.00;99.90;;;;;;4755824;30;20218;-73
2023/03/10 10:22:27;;;;;;;42.50;20.73;;;5.10;99.90;;;;;;4770323;30;20218;-73
2023/03/10 10:25:21;;;;;;;42.87;20.00;;;5.10;99.90;;;;;;4755720;30;20208;-73
2023/03/10 10:27:54;;;;;;;40.57;19.60;;;5.20;99.90;;;;;;4771763;30;20229;-74
2023/03/10 10:30:25;;;;;;;40.20;19.17;;;5.30;99.90;;;;;;4755604;30;20223;-73
2023/03/10 10:33:05;;;;;;;40.87;20.07;;;5.30;99.90;;;;;;4755330;30;20306;-73
2023/03/10 10:35:35;;;;;;;41.30;19.43;;;5.40;99.90;;;;;;4755382;30;20219;-73
2023/03/10 10:38:26;;;;;;;38.40;19.43;;;5.60;99.90;;;;;;4769778;30;20655;-73
2023/03/10 10:41:05;;;;;;;37.63;18.60;;;5.70;99.90;;;;;;4755376;30;20576;-73
2023/03/10 10:43:42;;;;;;;36.83;18.30;;;5.80;99.90;;;;;;4755003;30;20280;-73
2023/03/10 10:46:11;;;;;;;40.60;19.50;;;5.90;99.90;;;;;;4769967;30;20264;-73
2023/03/10 10:48:44;;;;;;;38.70;19.23;;;6.00;99.90;;;;;;4771503;30;20200;-73
2023/03/10 10:51:28;;;;;;;35.60;18.50;;;6.20;99.90;;;;;;4755137;30;20218;-73
2023/03/10 10:54:27;;;;;;;39.03;18.93;;;6.30;99.90;;;;;;4754979;30;20236;-73
2023/03/10 10:56:56;;;;;;;37.07;17.97;;;6.40;99.90;;;;;;4769693;30;20214;-73
2023/03/10 10:59:34;;;;;;;34.73;17.27;;;6.40;99.90;;;;;;4769789;30;20548;-74
2023/03/10 11:02:17;;;;;;;34.70;18.13;;;6.50;99.90;;;;;;4769582;30;20266;-71
2023/03/10 11:04:45;;;;;;;37.67;18.53;;;6.60;99.90;;;;;;4769562;30;20569;-72
2023/03/10 11:07:24;;;;;;;33.97;17.30;;;6.60;99.90;;;;;;4754858;30;20213;-72
2023/03/10 11:09:51;;;;;;;34.47;18.23;;;6.70;99.90;;;;;;4754756;30;20216;-72
2023/03/10 11:12:32;;;;;;;34.87;18.87;;;6.70;99.90;;;;;;4754779;30;21016;-73
2023/03/10 11:15:00;;;;;;;33.17;17.20;;;6.80;99.90;;;;;;4754501;30;20249;-73
2023/03/10 11:17:42;;;;;;;32.73;17.07;;;6.90;99.90;;;;;;4754681;30;20246;-73
2023/03/10 11:20:25;;;;;;;39.57;17.67;;;7.10;99.90;;;;;;4754583;30;20305;-73
2023/03/10 11:23:13;;;;;;;36.47;17.70;;;7.20;99.90;;;;;;4770927;30;20218;-73
2023/03/10 11:25:47;;;;;;;31.67;16.33;;;7.30;99.90;;;;;;4754606;30;20205;-74
2023/03/10 11:31:24;;;;;;;35.23;17.10;;;7.50;99.90;;;;;;4817539;24;20242;-73
2023/03/10 11:34:14;;;;;;;32.47;16.90;;;7.70;99.90;;;;;;4790302;29;20218;-73
2023/03/10 11:36:56;;;;;;;35.97;17.07;;;7.90;99.90;;;;;;4790095;29;20223;-73
2023/03/10 11:39:45;;;;;;;33.57;16.77;;;8.10;99.90;;;;;;4790177;29;20213;-74
2023/03/10 11:42:22;;;;;;;30.17;14.93;;;8.30;99.90;;;;;;4789687;29;20207;-73
2023/03/10 11:45:19;;;;;;;32.50;15.50;;;8.40;99.90;;;;;;4790082;29;20207;-76
2023/03/10 11:48:13;;;;;;;29.17;14.93;;;8.50;99.90;;;;;;4774638;29;20687;-76
2023/03/10 11:50:53;;;;;;;29.90;14.53;;;8.50;99.90;;;;;;4790068;29;20211;-73
2023/03/10 11:53:43;;;;;;;28.20;14.90;;;8.60;99.90;;;;;;4789949;29;20205;-74
2023/03/10 11:56:14;;;;;;;28.33;14.63;;;9.30;99.90;;;;;;4790044;29;20251;-74
2023/03/10 11:58:59;;;;;;;28.93;13.63;;;10.00;99.90;;;;;;4789910;29;20200;-74
2023/03/10 12:01:37;;;;;;;27.47;13.23;;;10.30;99.90;;;;;;4805923;29;20204;-74
2023/03/10 12:04:26;;;;;;;25.10;13.03;;;10.50;99.90;;;;;;4789675;29;20207;-75
2023/03/10 12:06:58;;;;;;;22.47;12.23;;;10.70;99.90;;;;;;4806153;29;20288;-74
2023/03/10 12:09:34;;;;;;;24.07;12.57;;;11.00;99.90;;;;;;4789762;29;20200;-74
2023/03/10 12:12:06;;;;;;;21.70;11.50;;;11.70;99.90;;;;;;4774922;29;20314;-75
2023/03/10 12:14:34;;;;;;;19.77;10.57;;;12.90;99.90;;;;;;4805735;29;20188;-74
2023/03/10 12:17:02;;;;;;;17.33;9.53;;;13.20;99.90;;;;;;4789451;29;20227;-74
2023/03/10 12:19:29;;;;;;;16.83;9.53;;;13.20;99.90;;;;;;4789644;29;20204;-73
2023/03/10 12:22:32;;;;;;;17.83;8.90;;;13.10;99.90;;;;;;4789641;29;20201;-74
2023/03/10 12:25:09;;;;;;;17.67;8.50;;;14.30;99.90;;;;;;4789207;29;20611;-75
2023/03/10 12:28:19;;;;;;;16.10;8.20;;;14.80;99.90;;;;;;4789422;29;20207;-74
2023/03/10 12:30:46;;;;;;;14.83;7.80;;;14.10;99.90;;;;;;4805338;29;20292;-75
2023/03/10 12:33:38;;;;;;;14.63;7.90;;;13.50;99.90;;;;;;4789157;29;20210;-75
2023/03/10 12:36:18;;;;;;;16.03;8.03;;;13.20;99.90;;;;;;4789351;29;20227;-75
2023/03/10 12:38:58;;;;;;;13.53;7.70;;;12.80;99.90;;;;;;4789236;29;20207;-75
2023/03/10 12:41:29;;;;;;;14.97;7.67;;;12.60;99.90;;;;;;4789459;29;20793;-75
2023/03/10 12:44:16;;;;;;;13.27;7.00;;;13.40;99.90;;;;;;4805500;29;20208;-76
2023/03/10 12:46:46;;;;;;;14.07;6.97;;;14.20;99.90;;;;;;4789058;29;20298;-76
2023/03/10 12:49:22;;;;;;;13.73;6.83;;;14.70;99.90;;;;;;4805665;29;20211;-75
2023/03/10 12:51:58;;;;;;;11.37;5.80;;;14.60;99.90;;;;;;4789065;29;20207;-75
2023/03/10 12:54:44;;;;;;;12.77;6.43;;;14.40;99.90;;;;;;4789054;29;20211;-75
2023/03/10 12:57:23;;;;;;;11.80;6.10;;;14.00;99.90;;;;;;4805283;29;20223;-73
2023/03/10 13:00:28;;;;;;;9.20;5.00;;;13.70;99.90;;;;;;4788777;29;20203;-75
2023/03/10 13:03:26;;;;;;;10.97;4.97;;;13.40;99.90;;;;;;4805299;29;20198;-74